Time;durP1;ratioP1;P1;durP2;ratioP2;P2;SDS_P1;SDS_P2;PMS_P1;PMS_P2;Temp;Humidity;BMP_temperature;BMP_pressure;BME280_temperature;BME280_humidity;BME280_pressure;Samples;Min_cycle;Max_cycle;Signal;HPM_P1;HPM_P2
2021/08/06 00:01:16;;;;;;;3.20;1.90;;;;;;;;;;5034143;28;20411;-64
2021/08/06 00:03:42;;;;;;;1.77;1.37;;;;;;;;;;5033225;28;20407;-64
2021/08/06 00:06:08;;;;;;;2.33;1.83;;;;;;;;;;5033697;28;20446;-64
2021/08/06 00:08:35;;;;;;;2.30;1.93;;;;;;;;;;5034147;28;20547;-64
2021/08/06 00:11:01;;;;;;;2.20;1.77;;;;;;;;;;5034068;28;20521;-64
2021/08/06 00:13:27;;;;;;;3.30;2.30;;;;;;;;;;5034372;28;20510;-64
2021/08/06 00:15:54;;;;;;;2.93;1.90;;;;;;;;;;5032624;28;20438;-64
2021/08/06 00:18:20;;;;;;;2.20;1.60;;;;;;;;;;5034014;28;20445;-64
2021/08/06 00:20:46;;;;;;;6.17;1.70;;;;;;;;;;5032825;28;20493;-64
2021/08/06 00:23:12;;;;;;;3.37;2.00;;;;;;;;;;5034125;28;20406;-64
2021/08/06 00:25:38;;;;;;;4.33;2.20;;;;;;;;;;5032641;28;20433;-65
2021/08/06 00:28:04;;;;;;;5.43;2.40;;;;;;;;;;5032761;28;20520;-64
2021/08/06 00:30:30;;;;;;;3.50;2.00;;;;;;;;;;5032578;28;20433;-65
2021/08/06 00:32:56;;;;;;;4.33;1.77;;;;;;;;;;5033745;28;20520;-64
2021/08/06 00:35:23;;;;;;;3.50;1.80;;;;;;;;;;5040560;28;20422;-63
2021/08/06 00:37:49;;;;;;;3.23;1.70;;;;;;;;;;5033834;28;20513;-66
2021/08/06 00:40:15;;;;;;;2.40;1.73;;;;;;;;;;5033034;28;20557;-63
2021/08/06 00:42:41;;;;;;;2.70;1.83;;;;;;;;;;5033896;28;20407;-63
2021/08/06 00:45:08;;;;;;;4.13;1.97;;;;;;;;;;5032555;28;20433;-63
2021/08/06 00:47:34;;;;;;;2.90;2.10;;;;;;;;;;5033444;28;20815;-63
2021/08/06 00:50:00;;;;;;;4.53;1.90;;;;;;;;;;5032559;28;20451;-63
2021/08/06 00:52:27;;;;;;;2.53;2.00;;;;;;;;;;5033741;28;20434;-63
2021/08/06 00:54:53;;;;;;;2.90;1.97;;;;;;;;;;5032266;28;20438;-63
2021/08/06 00:57:19;;;;;;;2.00;1.40;;;;;;;;;;5033288;28;20415;-63
2021/08/06 00:59:45;;;;;;;7.57;2.33;;;;;;;;;;5032437;28;20481;-63
2021/08/06 01:02:16;;;;;;;3.23;1.90;;;;;;;;;;5030820;28;20438;-64
2021/08/06 01:04:51;;;;;;;3.13;2.43;;;;;;;;;;5032325;28;20427;-64
2021/08/06 01:07:23;;;;;;;3.17;1.93;;;;;;;;;;5032998;28;20460;-64
2021/08/06 01:09:56;;;;;;;4.37;1.60;;;;;;;;;;5032387;28;20458;-63
2021/08/06 01:12:27;;;;;;;6.33;1.93;;;;;;;;;;5033046;28;20403;-65
2021/08/06 01:14:53;;;;;;;3.80;1.87;;;;;;;;;;5032024;28;20422;-64
2021/08/06 01:17:22;;;;;;;2.23;1.80;;;;;;;;;;5032925;28;20442;-64
2021/08/06 01:20:10;;;;;;;3.03;1.80;;;;;;;;;;5026417;28;20470;-63
2021/08/06 01:22:46;;;;;;;3.23;1.60;;;;;;;;;;5013425;28;20423;-63
2021/08/06 01:25:12;;;;;;;2.77;1.87;;;;;;;;;;5024264;28;20423;-63
2021/08/06 01:27:39;;;;;;;2.43;1.90;;;;;;;;;;5032996;28;20998;-63
2021/08/06 01:30:06;;;;;;;2.50;1.60;;;;;;;;;;5031686;28;20450;-63
2021/08/06 01:32:33;;;;;;;3.00;2.23;;;;;;;;;;5033065;28;20402;-63
2021/08/06 01:34:59;;;;;;;3.57;2.13;;;;;;;;;;5033145;28;20789;-63
2021/08/06 01:37:25;;;;;;;3.30;1.63;;;;;;;;;;5033186;28;20759;-65
2021/08/06 01:39:51;;;;;;;3.00;2.07;;;;;;;;;;5029579;28;20422;-71
2021/08/06 01:42:20;;;;;;;4.10;1.60;;;;;;;;;;5020197;28;20507;-64
2021/08/06 01:44:55;;;;;;;3.10;2.03;;;;;;;;;;5031033;28;20969;-63
2021/08/06 01:47:27;;;;;;;2.40;2.03;;;;;;;;;;5025543;28;20442;-64
2021/08/06 01:50:01;;;;;;;2.53;1.80;;;;;;;;;;5031359;28;20453;-63
2021/08/06 01:52:30;;;;;;;2.87;1.90;;;;;;;;;;5026671;28;20407;-64
2021/08/06 01:55:01;;;;;;;2.73;1.93;;;;;;;;;;5033770;28;20438;-63
2021/08/06 01:57:28;;;;;;;6.70;4.43;;;;;;;;;;5036625;28;21029;-63
2021/08/06 01:59:55;;;;;;;11.00;7.73;;;;;;;;;;5035848;28;20406;-63
2021/08/06 02:02:21;;;;;;;18.43;12.53;;;;;;;;;;5034638;28;20984;-64
2021/08/06 02:04:48;;;;;;;19.30;11.27;;;;;;;;;;5036209;28;20414;-62
2021/08/06 02:07:17;;;;;;;23.90;15.60;;;;;;;;;;5035888;28;20466;-64
2021/08/06 02:09:44;;;;;;;25.80;15.13;;;;;;;;;;5036395;28;20911;-63
2021/08/06 02:12:10;;;;;;;22.07;13.03;;;;;;;;;;5035423;28;20481;-63
2021/08/06 02:14:36;;;;;;;22.00;11.20;;;;;;;;;;5035997;28;20421;-64
2021/08/06 02:17:03;;;;;;;18.73;9.83;;;;;;;;;;5035398;28;20839;-64
2021/08/06 02:19:29;;;;;;;13.30;8.20;;;;;;;;;;5036341;28;20513;-64
2021/08/06 02:21:56;;;;;;;12.77;8.90;;;;;;;;;;5018304;28;20477;-64
2021/08/06 02:24:23;;;;;;;12.57;7.00;;;;;;;;;;5020808;28;20411;-64
2021/08/06 02:26:50;;;;;;;10.07;6.47;;;;;;;;;;5034911;28;20433;-64
2021/08/06 02:29:19;;;;;;;12.10;7.40;;;;;;;;;;5036167;28;20437;-63
2021/08/06 02:31:45;;;;;;;15.73;8.67;;;;;;;;;;5034160;28;20411;-64
2021/08/06 02:34:12;;;;;;;11.93;7.07;;;;;;;;;;5035973;28;20764;-64
2021/08/06 02:36:38;;;;;;;11.97;6.87;;;;;;;;;;5045236;28;20568;-64
2021/08/06 02:39:11;;;;;;;8.20;4.70;;;;;;;;;;5036061;28;20564;-65
2021/08/06 02:41:37;;;;;;;7.47;4.97;;;;;;;;;;5035304;28;20435;-65
2021/08/06 02:44:03;;;;;;;6.70;4.13;;;;;;;;;;5036058;28;20404;-66
2021/08/06 02:46:30;;;;;;;7.33;4.60;;;;;;;;;;5034621;28;20430;-65
2021/08/06 02:48:56;;;;;;;8.30;4.10;;;;;;;;;;5035469;28;20466;-65
2021/08/06 02:51:22;;;;;;;8.10;5.00;;;;;;;;;;5034788;28;20441;-64
2021/08/06 02:53:48;;;;;;;7.07;4.70;;;;;;;;;;5035551;28;20403;-63
2021/08/06 02:56:14;;;;;;;5.50;3.33;;;;;;;;;;5034099;28;20850;-66
2021/08/06 02:58:40;;;;;;;7.53;3.00;;;;;;;;;;5035733;28;20414;-64
2021/08/06 03:01:06;;;;;;;5.57;3.10;;;;;;;;;;5032547;28;20785;-62
2021/08/06 03:03:32;;;;;;;7.50;3.20;;;;;;;;;;5034687;28;20411;-63
2021/08/06 03:05:58;;;;;;;5.50;2.80;;;;;;;;;;5032930;28;20537;-64
2021/08/06 03:08:24;;;;;;;2.67;2.20;;;;;;;;;;5035360;28;20818;-63
2021/08/06 03:10:50;;;;;;;3.27;2.50;;;;;;;;;;5034815;28;20761;-66
2021/08/06 03:13:16;;;;;;;6.50;2.73;;;;;;;;;;5035213;28;20917;-64
2021/08/06 03:15:42;;;;;;;4.57;2.13;;;;;;;;;;5035073;28;20510;-63
2021/08/06 03:18:11;;;;;;;4.67;2.40;;;;;;;;;;5032571;28;20462;-63
2021/08/06 03:20:37;;;;;;;4.20;2.60;;;;;;;;;;5035054;28;20904;-64
2021/08/06 03:23:03;;;;;;;3.50;2.63;;;;;;;;;;5022487;28;20459;-64
2021/08/06 03:25:29;;;;;;;3.07;2.57;;;;;;;;;;5033470;28;20414;-63
2021/08/06 03:27:56;;;;;;;4.20;2.50;;;;;;;;;;5032480;28;20493;-64
2021/08/06 03:30:22;;;;;;;6.30;2.70;;;;;;;;;;5034805;28;20406;-63
2021/08/06 03:32:49;;;;;;;5.40;2.53;;;;;;;;;;5031140;28;20485;-61
2021/08/06 03:35:15;;;;;;;4.40;2.70;;;;;;;;;;5033799;28;20939;-64
2021/08/06 03:37:42;;;;;;;6.10;2.80;;;;;;;;;;5032024;28;20862;-63
2021/08/06 03:40:08;;;;;;;3.67;2.63;;;;;;;;;;5034995;28;20399;-63
2021/08/06 03:42:34;;;;;;;3.70;2.63;;;;;;;;;;5033862;28;20938;-63
2021/08/06 03:45:00;;;;;;;3.37;2.50;;;;;;;;;;5030903;28;20885;-68
2021/08/06 03:47:26;;;;;;;2.90;2.20;;;;;;;;;;5024229;28;20913;-63
2021/08/06 03:49:52;;;;;;;3.90;2.83;;;;;;;;;;5035098;28;20410;-65
2021/08/06 03:52:18;;;;;;;5.17;4.17;;;;;;;;;;5032312;28;20429;-63
2021/08/06 03:54:44;;;;;;;4.10;3.07;;;;;;;;;;5034383;28;20427;-63
2021/08/06 03:57:10;;;;;;;3.53;2.30;;;;;;;;;;5033361;28;20457;-63
2021/08/06 03:59:36;;;;;;;4.10;2.80;;;;;;;;;;5034223;28;20927;-63
2021/08/06 04:02:03;;;;;;;2.53;2.13;;;;;;;;;;5033409;28;20446;-63
2021/08/06 04:04:29;;;;;;;3.33;2.30;;;;;;;;;;5032318;28;20932;-65
2021/08/06 04:06:55;;;;;;;3.50;2.27;;;;;;;;;;5033053;28;20941;-65
2021/08/06 04:09:21;;;;;;;3.20;2.17;;;;;;;;;;5032397;28;20438;-63
2021/08/06 04:11:47;;;;;;;2.93;2.40;;;;;;;;;;5033479;28;20446;-64
2021/08/06 04:14:13;;;;;;;3.43;2.00;;;;;;;;;;5033886;28;20406;-64
2021/08/06 04:16:39;;;;;;;4.03;2.47;;;;;;;;;;5032687;28;20485;-63
2021/08/06 04:19:05;;;;;;;3.80;2.23;;;;;;;;;;5034379;28;20935;-63
2021/08/06 04:21:31;;;;;;;4.57;2.50;;;;;;;;;;5032878;28;20430;-63
2021/08/06 04:23:57;;;;;;;2.90;2.03;;;;;;;;;;5033928;28;20469;-63
2021/08/06 04:26:23;;;;;;;3.60;2.10;;;;;;;;;;5032604;28;20852;-63
2021/08/06 04:28:49;;;;;;;3.90;2.30;;;;;;;;;;5033589;28;21098;-63
2021/08/06 04:31:15;;;;;;;4.80;1.93;;;;;;;;;;5032666;28;20509;-65
2021/08/06 04:33:41;;;;;;;2.60;1.93;;;;;;;;;;5033599;28;20398;-63
2021/08/06 04:36:07;;;;;;;2.73;2.00;;;;;;;;;;5036597;28;20414;-64
2021/08/06 04:38:34;;;;;;;3.43;2.50;;;;;;;;;;5032427;28;20536;-63
2021/08/06 04:41:00;;;;;;;3.70;2.50;;;;;;;;;;5032515;28;20609;-64
2021/08/06 04:43:26;;;;;;;3.03;2.40;;;;;;;;;;5032303;28;20994;-63
2021/08/06 04:45:52;;;;;;;3.40;2.07;;;;;;;;;;5033229;28;20484;-63
2021/08/06 04:48:21;;;;;;;3.00;2.10;;;;;;;;;;5032252;28;20466;-63
2021/08/06 04:50:48;;;;;;;2.90;2.07;;;;;;;;;;5033624;28;20453;-64
2021/08/06 04:53:14;;;;;;;4.13;2.37;;;;;;;;;;5032224;28;20433;-65
2021/08/06 04:55:40;;;;;;;3.30;2.40;;;;;;;;;;5032077;28;20943;-63
2021/08/06 04:58:06;;;;;;;3.30;2.10;;;;;;;;;;5028708;28;20534;-65
2021/08/06 05:00:33;;;;;;;3.97;2.10;;;;;;;;;;5032731;28;20442;-65
2021/08/06 05:02:59;;;;;;;3.70;2.80;;;;;;;;;;5020759;28;20415;-65
2021/08/06 05:05:25;;;;;;;4.93;2.77;;;;;;;;;;5032444;28;20434;-64
2021/08/06 05:07:52;;;;;;;2.60;2.07;;;;;;;;;;5032744;28;20469;-64
2021/08/06 05:10:19;;;;;;;4.60;3.10;;;;;;;;;;5032343;28;20450;-66
2021/08/06 05:12:45;;;;;;;4.30;2.17;;;;;;;;;;5033027;28;20422;-66
2021/08/06 05:15:11;;;;;;;3.83;2.23;;;;;;;;;;5034290;28;20421;-66
2021/08/06 05:17:37;;;;;;;3.30;2.50;;;;;;;;;;5031074;28;20430;-63
2021/08/06 05:20:04;;;;;;;3.70;2.00;;;;;;;;;;5033388;28;20429;-64
2021/08/06 05:22:30;;;;;;;3.80;2.33;;;;;;;;;;5034065;28;20429;-63
2021/08/06 05:24:56;;;;;;;3.63;1.97;;;;;;;;;;5033555;28;20514;-63
2021/08/06 05:27:22;;;;;;;3.07;2.13;;;;;;;;;;5032379;28;20466;-64
2021/08/06 05:29:48;;;;;;;2.77;2.00;;;;;;;;;;5033232;28;20417;-66
2021/08/06 05:32:14;;;;;;;3.20;2.43;;;;;;;;;;5030891;28;20549;-64
2021/08/06 05:34:40;;;;;;;4.87;2.10;;;;;;;;;;5033472;28;20413;-64
2021/08/06 05:37:06;;;;;;;2.30;1.63;;;;;;;;;;5034005;28;20431;-64
2021/08/06 05:39:32;;;;;;;3.47;2.33;;;;;;;;;;5035662;28;20528;-65
2021/08/06 05:41:58;;;;;;;2.43;1.60;;;;;;;;;;5037183;28;20419;-65
2021/08/06 05:44:24;;;;;;;2.57;1.97;;;;;;;;;;5035544;28;20426;-64
2021/08/06 05:46:50;;;;;;;2.50;1.70;;;;;;;;;;5036897;28;20402;-65
2021/08/06 05:49:17;;;;;;;3.63;1.70;;;;;;;;;;5034755;28;20521;-65
2021/08/06 05:51:43;;;;;;;3.60;1.97;;;;;;;;;;5035099;28;20422;-62
2021/08/06 05:54:09;;;;;;;2.43;1.70;;;;;;;;;;5034669;28;20787;-62
2021/08/06 05:56:35;;;;;;;3.03;1.97;;;;;;;;;;5036354;28;20490;-62
2021/08/06 05:59:01;;;;;;;6.90;2.60;;;;;;;;;;5034875;28;20450;-65
2021/08/06 06:01:27;;;;;;;4.23;2.57;;;;;;;;;;5036004;28;20421;-63
2021/08/06 06:03:55;;;;;;;3.70;2.27;;;;;;;;;;5035647;28;20414;-67
2021/08/06 06:06:21;;;;;;;2.47;1.90;;;;;;;;;;5037250;28;20533;-66
2021/08/06 06:08:47;;;;;;;2.63;1.80;;;;;;;;;;5035508;28;20524;-65
2021/08/06 06:11:13;;;;;;;5.50;2.33;;;;;;;;;;5035560;28;20421;-65
2021/08/06 06:13:39;;;;;;;3.50;2.13;;;;;;;;;;5032036;28;20407;-63
2021/08/06 06:16:06;;;;;;;6.80;3.07;;;;;;;;;;5034863;28;20411;-62
2021/08/06 06:18:32;;;;;;;3.03;2.13;;;;;;;;;;5033877;28;20977;-64
2021/08/06 06:20:58;;;;;;;6.83;2.20;;;;;;;;;;5032598;28;20457;-62
2021/08/06 06:23:24;;;;;;;5.33;2.17;;;;;;;;;;5033882;28;20426;-66
2021/08/06 06:25:50;;;;;;;6.30;2.27;;;;;;;;;;5027701;28;20422;-62
2021/08/06 06:28:16;;;;;;;3.07;2.00;;;;;;;;;;5033825;28;20464;-63
2021/08/06 06:30:42;;;;;;;2.77;1.80;;;;;;;;;;5041408;28;20410;-62
2021/08/06 06:33:08;;;;;;;3.37;1.80;;;;;;;;;;5034299;28;20438;-63
2021/08/06 06:35:35;;;;;;;2.67;1.97;;;;;;;;;;5036139;28;20402;-63
2021/08/06 06:38:01;;;;;;;4.20;2.30;;;;;;;;;;5035247;28;20509;-62
2021/08/06 06:40:28;;;;;;;2.10;1.63;;;;;;;;;;5035618;28;20505;-63
2021/08/06 06:42:54;;;;;;;3.03;2.13;;;;;;;;;;5036081;28;20410;-63
2021/08/06 06:45:20;;;;;;;4.53;2.60;;;;;;;;;;5034904;28;20477;-64
2021/08/06 06:47:48;;;;;;;3.90;2.40;;;;;;;;;;5034611;28;20470;-63
2021/08/06 06:50:15;;;;;;;2.80;1.60;;;;;;;;;;5034775;28;20943;-63
2021/08/06 06:52:41;;;;;;;3.73;2.23;;;;;;;;;;5035760;28;20851;-64
2021/08/06 06:55:09;;;;;;;3.40;1.77;;;;;;;;;;5034711;28;20438;-64
2021/08/06 06:57:45;;;;;;;6.43;2.17;;;;;;;;;;5035485;28;20422;-65
2021/08/06 07:00:11;;;;;;;4.50;2.57;;;;;;;;;;5034871;28;20430;-64
2021/08/06 07:02:37;;;;;;;3.00;2.00;;;;;;;;;;5035602;28;20461;-64
2021/08/06 07:05:04;;;;;;;2.70;1.80;;;;;;;;;;5034376;28;20423;-64
2021/08/06 07:07:30;;;;;;;2.30;1.60;;;;;;;;;;5035230;28;20462;-64
2021/08/06 07:09:56;;;;;;;5.00;2.13;;;;;;;;;;5034324;28;20453;-64
2021/08/06 07:12:22;;;;;;;4.33;1.73;;;;;;;;;;5035367;28;20884;-64
2021/08/06 07:14:48;;;;;;;2.67;1.93;;;;;;;;;;5034249;28;20435;-64
2021/08/06 07:17:14;;;;;;;4.50;2.10;;;;;;;;;;5035060;28;20938;-64
2021/08/06 07:19:40;;;;;;;2.47;2.07;;;;;;;;;;5031752;28;20458;-64
2021/08/06 07:22:06;;;;;;;3.40;2.20;;;;;;;;;;5037546;28;20445;-64
2021/08/06 07:24:32;;;;;;;3.50;1.80;;;;;;;;;;5043594;28;20439;-64
2021/08/06 07:26:58;;;;;;;3.50;1.73;;;;;;;;;;5035085;28;20501;-64
2021/08/06 07:29:24;;;;;;;2.60;1.63;;;;;;;;;;5034031;28;20454;-64
2021/08/06 07:31:50;;;;;;;3.03;2.03;;;;;;;;;;5035001;28;20399;-64
2021/08/06 07:34:16;;;;;;;3.90;2.30;;;;;;;;;;5032745;28;20453;-64
2021/08/06 07:36:43;;;;;;;3.77;1.90;;;;;;;;;;5034844;28;20406;-64
2021/08/06 07:39:09;;;;;;;3.33;2.20;;;;;;;;;;5033721;28;20486;-64
2021/08/06 07:41:35;;;;;;;5.20;2.60;;;;;;;;;;5035172;28;20402;-64
2021/08/06 07:44:01;;;;;;;2.43;1.73;;;;;;;;;;5033702;28;20426;-64
2021/08/06 07:46:27;;;;;;;3.70;2.20;;;;;;;;;;5034705;28;20410;-64
2021/08/06 07:48:54;;;;;;;3.20;1.77;;;;;;;;;;5033342;28;20551;-64
2021/08/06 07:51:20;;;;;;;2.80;2.17;;;;;;;;;;5034623;28;20416;-64
2021/08/06 07:53:46;;;;;;;2.33;1.77;;;;;;;;;;5033463;28;20395;-64
2021/08/06 07:56:13;;;;;;;3.30;2.23;;;;;;;;;;5033607;28;20450;-62
2021/08/06 07:58:39;;;;;;;2.90;2.17;;;;;;;;;;5033472;28;20447;-63
2021/08/06 08:01:05;;;;;;;3.70;1.90;;;;;;;;;;5033968;28;20433;-64
2021/08/06 08:03:31;;;;;;;2.93;1.87;;;;;;;;;;5031864;28;20425;-62
2021/08/06 08:05:58;;;;;;;3.60;2.60;;;;;;;;;;5027296;28;20907;-63
2021/08/06 08:08:24;;;;;;;3.10;1.97;;;;;;;;;;5031890;28;20470;-64
2021/08/06 08:10:50;;;;;;;4.10;1.73;;;;;;;;;;5032619;28;20427;-64
2021/08/06 08:13:17;;;;;;;3.43;1.83;;;;;;;;;;5034158;28;20403;-64
2021/08/06 08:15:43;;;;;;;3.27;1.77;;;;;;;;;;5032118;28;20792;-64
2021/08/06 08:18:09;;;;;;;4.70;2.67;;;;;;;;;;5033448;28;20445;-64
2021/08/06 08:20:35;;;;;;;2.73;1.70;;;;;;;;;;5031856;28;20419;-64
2021/08/06 08:23:01;;;;;;;2.73;1.50;;;;;;;;;;5033715;28;20422;-64
2021/08/06 08:25:27;;;;;;;3.40;2.07;;;;;;;;;;5032240;28;20459;-64
2021/08/06 08:27:53;;;;;;;3.10;1.60;;;;;;;;;;5031392;28;20466;-64
2021/08/06 08:30:19;;;;;;;3.37;2.07;;;;;;;;;;5033146;28;20422;-64
2021/08/06 08:32:45;;;;;;;2.30;1.50;;;;;;;;;;5033289;28;20406;-64
2021/08/06 08:35:11;;;;;;;2.57;1.90;;;;;;;;;;5032841;28;20423;-64
2021/08/06 08:37:37;;;;;;;2.30;1.73;;;;;;;;;;5032981;28;20451;-64
2021/08/06 08:40:04;;;;;;;4.50;2.10;;;;;;;;;;5031736;28;20801;-64
2021/08/06 08:42:31;;;;;;;3.20;2.03;;;;;;;;;;5022526;28;20521;-64
2021/08/06 08:45:01;;;;;;;2.20;1.50;;;;;;;;;;5031845;28;20426;-64
2021/08/06 08:47:27;;;;;;;3.53;1.60;;;;;;;;;;5032634;28;20465;-64
2021/08/06 08:49:53;;;;;;;3.30;1.50;;;;;;;;;;5032192;28;20421;-64
2021/08/06 08:52:21;;;;;;;2.40;1.60;;;;;;;;;;5033404;28;20755;-64
2021/08/06 08:54:47;;;;;;;4.10;2.13;;;;;;;;;;5032035;28;20466;-63
2021/08/06 08:57:18;;;;;;;3.43;1.67;;;;;;;;;;5032387;28;20421;-63
2021/08/06 08:59:44;;;;;;;3.00;1.70;;;;;;;;;;5027448;28;20431;-64
2021/08/06 09:02:11;;;;;;;3.07;1.50;;;;;;;;;;5031064;28;20947;-63
2021/08/06 09:04:37;;;;;;;1.87;1.30;;;;;;;;;;5028410;28;20946;-63
2021/08/06 09:07:03;;;;;;;3.03;1.60;;;;;;;;;;5053100;28;20416;-64
2021/08/06 09:09:29;;;;;;;2.40;1.40;;;;;;;;;;5037875;28;20820;-64
2021/08/06 09:12:09;;;;;;;2.67;1.30;;;;;;;;;;5033262;28;20422;-64
2021/08/06 09:14:36;;;;;;;3.57;1.60;;;;;;;;;;5031521;28;20472;-64
2021/08/06 09:17:02;;;;;;;2.80;1.57;;;;;;;;;;5038194;28;20407;-64
2021/08/06 09:19:30;;;;;;;3.70;2.27;;;;;;;;;;5046965;28;20450;-63
2021/08/06 09:22:25;;;;;;;2.57;1.53;;;;;;;;;;5032967;28;20962;-64
2021/08/06 09:24:57;;;;;;;3.30;1.33;;;;;;;;;;5030639;28;20458;-64
2021/08/06 09:27:24;;;;;;;2.07;1.30;;;;;;;;;;5032745;28;20461;-63
2021/08/06 09:29:50;;;;;;;2.57;1.30;;;;;;;;;;5031560;28;20492;-63
2021/08/06 09:32:17;;;;;;;2.93;1.70;;;;;;;;;;5031470;28;20403;-64
2021/08/06 09:34:44;;;;;;;2.10;1.43;;;;;;;;;;5028935;28;20458;-64
2021/08/06 09:37:11;;;;;;;6.23;1.70;;;;;;;;;;5032622;28;20402;-64
2021/08/06 09:39:37;;;;;;;3.10;1.43;;;;;;;;;;5031431;28;20438;-64
2021/08/06 09:42:04;;;;;;;3.23;1.33;;;;;;;;;;5032839;28;20911;-64
2021/08/06 09:44:30;;;;;;;2.60;1.60;;;;;;;;;;5031718;28;20911;-64
2021/08/06 09:46:58;;;;;;;2.30;1.37;;;;;;;;;;5032579;28;20407;-64
2021/08/06 09:49:26;;;;;;;2.30;1.43;;;;;;;;;;5031704;28;22130;-64
2021/08/06 09:51:52;;;;;;;2.03;1.37;;;;;;;;;;5013159;28;20399;-64
2021/08/06 09:54:18;;;;;;;2.40;1.13;;;;;;;;;;5024544;28;20427;-64
2021/08/06 09:56:45;;;;;;;3.70;1.70;;;;;;;;;;5032901;28;20387;-64
2021/08/06 09:59:11;;;;;;;3.97;2.27;;;;;;;;;;5031371;28;20434;-63
2021/08/06 10:01:37;;;;;;;3.90;2.00;;;;;;;;;;5028499;28;20428;-64
2021/08/06 10:04:14;;;;;;;4.43;1.93;;;;;;;;;;5023672;28;20497;-63
2021/08/06 10:06:55;;;;;;;14.60;1.63;;;;;;;;;;5032314;28;20417;-63
2021/08/06 10:09:22;;;;;;;2.30;1.43;;;;;;;;;;5029934;28;20806;-63
2021/08/06 10:11:48;;;;;;;4.03;1.80;;;;;;;;;;5032590;28;20907;-63
2021/08/06 10:14:14;;;;;;;4.17;1.53;;;;;;;;;;5031506;28;20406;-63
2021/08/06 10:16:40;;;;;;;3.83;1.50;;;;;;;;;;5035496;28;20445;-63
2021/08/06 10:19:08;;;;;;;7.37;3.13;;;;;;;;;;5035896;28;20555;-63
2021/08/06 10:21:34;;;;;;;9.83;2.67;;;;;;;;;;5035108;28;20419;-64
2021/08/06 10:24:01;;;;;;;2.77;1.60;;;;;;;;;;5036147;28;20813;-64
2021/08/06 10:26:27;;;;;;;3.13;1.53;;;;;;;;;;5034771;28;20441;-64
2021/08/06 10:28:53;;;;;;;2.97;1.30;;;;;;;;;;5035845;28;20466;-63
2021/08/06 10:31:21;;;;;;;2.67;1.60;;;;;;;;;;5034861;28;21011;-63
2021/08/06 10:34:16;;;;;;;3.80;2.10;;;;;;;;;;5034625;28;20418;-63
2021/08/06 10:36:43;;;;;;;3.93;1.70;;;;;;;;;;5030011;28;20449;-63
2021/08/06 10:39:29;;;;;;;5.83;1.20;;;;;;;;;;5035417;28;20515;-63
2021/08/06 10:41:55;;;;;;;3.50;1.80;;;;;;;;;;5035100;28;20484;-64
2021/08/06 10:44:21;;;;;;;2.90;1.57;;;;;;;;;;5034421;28;20414;-64
2021/08/06 10:46:52;;;;;;;2.47;1.60;;;;;;;;;;5034919;28;20449;-64
2021/08/06 10:49:18;;;;;;;2.87;1.50;;;;;;;;;;5035368;28;20561;-64
2021/08/06 10:51:45;;;;;;;2.77;1.60;;;;;;;;;;5034994;28;20415;-64
2021/08/06 10:54:25;;;;;;;3.70;1.40;;;;;;;;;;5046023;28;20424;-64
2021/08/06 10:57:10;;;;;;;3.73;1.57;;;;;;;;;;5034875;28;20526;-64
2021/08/06 10:59:40;;;;;;;2.30;1.63;;;;;;;;;;5035631;28;20786;-64
2021/08/06 11:02:06;;;;;;;2.67;1.60;;;;;;;;;;5033546;28;20533;-64
2021/08/06 11:04:32;;;;;;;2.63;1.50;;;;;;;;;;5035007;28;20406;-64
2021/08/06 11:07:02;;;;;;;3.83;1.50;;;;;;;;;;5033173;28;20433;-64
2021/08/06 11:09:33;;;;;;;2.40;1.50;;;;;;;;;;5035465;28;20799;-64
2021/08/06 11:12:06;;;;;;;2.77;1.43;;;;;;;;;;5034203;28;20427;-63
2021/08/06 11:14:35;;;;;;;2.10;1.40;;;;;;;;;;5034723;28;20419;-64
2021/08/06 11:17:01;;;;;;;3.00;1.40;;;;;;;;;;5034402;28;20829;-63
2021/08/06 11:19:33;;;;;;;3.13;1.70;;;;;;;;;;5034821;28;20450;-64
2021/08/06 11:22:00;;;;;;;2.77;1.53;;;;;;;;;;5033373;28;20437;-64
2021/08/06 11:24:27;;;;;;;2.30;1.50;;;;;;;;;;5031919;28;20419;-64
2021/08/06 11:26:53;;;;;;;2.43;1.40;;;;;;;;;;5032207;28;20883;-64
2021/08/06 11:29:20;;;;;;;2.10;1.37;;;;;;;;;;5034867;28;20454;-64
2021/08/06 11:31:58;;;;;;;2.43;1.60;;;;;;;;;;5033304;28;20777;-64
2021/08/06 11:34:24;;;;;;;5.10;1.63;;;;;;;;;;5034773;28;20954;-64
2021/08/06 11:37:00;;;;;;;3.77;1.40;;;;;;;;;;5033850;28;20745;-65
2021/08/06 11:39:26;;;;;;;3.80;1.50;;;;;;;;;;5035042;28;20853;-64
2021/08/06 11:41:53;;;;;;;5.67;1.63;;;;;;;;;;5031739;28;20422;-64
2021/08/06 11:44:20;;;;;;;2.60;1.90;;;;;;;;;;5035100;28;20779;-64
2021/08/06 11:46:50;;;;;;;4.50;1.43;;;;;;;;;;5033565;28;20432;-64
2021/08/06 11:49:16;;;;;;;2.57;1.50;;;;;;;;;;5034528;28;20471;-64
2021/08/06 11:51:49;;;;;;;2.23;1.30;;;;;;;;;;5033601;28;20433;-63
2021/08/06 11:54:16;;;;;;;3.57;1.50;;;;;;;;;;5037234;28;21208;-64
2021/08/06 11:56:44;;;;;;;2.40;1.33;;;;;;;;;;5045075;28;20923;-65
2021/08/06 11:59:10;;;;;;;3.50;1.70;;;;;;;;;;5034141;28;20426;-64
2021/08/06 12:01:36;;;;;;;3.10;1.43;;;;;;;;;;5033228;28;20429;-63
2021/08/06 12:04:02;;;;;;;4.53;2.00;;;;;;;;;;5034303;28;20916;-64
2021/08/06 12:06:29;;;;;;;2.50;1.50;;;;;;;;;;5032816;28;20472;-64
2021/08/06 12:08:58;;;;;;;4.13;1.87;;;;;;;;;;5033992;28;20971;-64
2021/08/06 12:11:25;;;;;;;3.97;1.50;;;;;;;;;;5033045;28;20460;-64
2021/08/06 12:13:52;;;;;;;3.10;1.80;;;;;;;;;;5034156;28;20413;-64
2021/08/06 12:16:23;;;;;;;3.83;1.50;;;;;;;;;;5032872;28;20410;-64
2021/08/06 12:18:50;;;;;;;2.40;1.50;;;;;;;;;;5013877;28;21058;-64
2021/08/06 12:21:25;;;;;;;2.57;1.40;;;;;;;;;;5013950;28;20408;-63
2021/08/06 12:24:00;;;;;;;2.57;1.73;;;;;;;;;;5034028;28;20877;-64
2021/08/06 12:29:09;;;;;;;2.47;1.60;;;;;;;;;;4993417;22;20496;-83
2021/08/06 12:31:47;;;;;;;4.03;1.70;;;;;;;;;;4996661;28;20463;-83
2021/08/06 12:34:13;;;;;;;3.57;1.40;;;;;;;;;;4993019;28;20430;-83
2021/08/06 12:36:58;;;;;;;3.53;1.60;;;;;;;;;;4991608;28;20415;-81
2021/08/06 12:39:25;;;;;;;3.77;2.10;;;;;;;;;;4997856;28;20416;-83
2021/08/06 12:41:51;;;;;;;3.30;1.40;;;;;;;;;;4994768;28;20446;-82
2021/08/06 12:44:28;;;;;;;3.40;1.47;;;;;;;;;;4997349;28;20404;-83
2021/08/06 12:47:18;;;;;;;5.60;1.30;;;;;;;;;;4997164;28;20501;-83
2021/08/06 12:49:54;;;;;;;2.07;1.40;;;;;;;;;;4996355;28;20812;-83
2021/08/06 12:52:25;;;;;;;3.80;1.73;;;;;;;;;;4996175;28;20427;-82
2021/08/06 12:54:51;;;;;;;3.20;1.20;;;;;;;;;;5009096;28;20400;-82
2021/08/06 12:57:17;;;;;;;3.13;1.30;;;;;;;;;;4982980;28;20467;-84
2021/08/06 12:59:44;;;;;;;2.70;1.73;;;;;;;;;;4997183;28;20807;-84
2021/08/06 13:02:18;;;;;;;2.30;1.30;;;;;;;;;;4995550;28;20424;-84
2021/08/06 13:04:44;;;;;;;5.30;1.80;;;;;;;;;;4993946;28;20780;-84
2021/08/06 13:07:23;;;;;;;5.57;1.57;;;;;;;;;;4983176;28;20440;-84
2021/08/06 13:09:49;;;;;;;2.73;1.70;;;;;;;;;;4995086;28;20436;-84
2021/08/06 13:12:16;;;;;;;2.63;1.63;;;;;;;;;;4995326;28;20452;-83
2021/08/06 13:14:43;;;;;;;5.13;1.67;;;;;;;;;;4991633;28;20414;-84
2021/08/06 13:17:10;;;;;;;3.07;1.60;;;;;;;;;;4981142;28;20459;-84
2021/08/06 13:19:37;;;;;;;2.90;1.77;;;;;;;;;;4996389;28;20448;-82
2021/08/06 13:22:05;;;;;;;2.80;1.70;;;;;;;;;;4994755;28;20424;-82
2021/08/06 13:24:31;;;;;;;2.23;1.60;;;;;;;;;;5007192;28;20444;-84
2021/08/06 13:26:57;;;;;;;2.23;1.53;;;;;;;;;;4990596;28;20530;-83
2021/08/06 13:29:23;;;;;;;2.60;1.60;;;;;;;;;;4990199;28;20506;-83
2021/08/06 13:31:49;;;;;;;2.53;1.37;;;;;;;;;;4987503;28;20416;-83
2021/08/06 13:34:16;;;;;;;3.93;1.93;;;;;;;;;;4992564;28;20409;-81
2021/08/06 13:36:42;;;;;;;4.07;1.47;;;;;;;;;;5023942;28;20476;-83
2021/08/06 13:39:08;;;;;;;3.40;1.50;;;;;;;;;;5008518;28;20441;-80
2021/08/06 13:41:35;;;;;;;2.87;1.90;;;;;;;;;;5026798;28;20432;-79
2021/08/06 13:44:01;;;;;;;4.13;2.17;;;;;;;;;;5012478;28;20439;-82
2021/08/06 13:46:27;;;;;;;3.80;1.73;;;;;;;;;;4999211;28;20420;-84
2021/08/06 13:48:53;;;;;;;4.60;1.73;;;;;;;;;;5021557;23;20486;-68
2021/08/06 13:51:19;;;;;;;2.87;1.87;;;;;;;;;;5011226;28;20901;-69
2021/08/06 13:53:45;;;;;;;3.13;1.80;;;;;;;;;;5007421;28;20826;-69
2021/08/06 13:56:11;;;;;;;3.17;1.50;;;;;;;;;;5008706;28;20404;-70
2021/08/06 13:58:37;;;;;;;3.20;1.37;;;;;;;;;;5015827;28;20451;-69
2021/08/06 14:01:04;;;;;;;4.57;1.83;;;;;;;;;;5014703;28;20446;-70
2021/08/06 14:03:30;;;;;;;2.70;1.20;;;;;;;;;;5006549;28;20407;-70
2021/08/06 14:05:56;;;;;;;3.03;1.20;;;;;;;;;;5015449;28;20415;-69
2021/08/06 14:08:22;;;;;;;5.23;1.67;;;;;;;;;;5014756;28;20487;-69
2021/08/06 14:10:48;;;;;;;3.07;1.30;;;;;;;;;;5015188;28;20412;-69
2021/08/06 14:13:14;;;;;;;3.23;1.30;;;;;;;;;;5011269;28;20461;-69
2021/08/06 14:15:40;;;;;;;2.10;1.40;;;;;;;;;;5008762;28;20442;-70
2021/08/06 14:18:07;;;;;;;3.30;1.50;;;;;;;;;;5007818;28;20451;-70
2021/08/06 14:20:33;;;;;;;3.80;1.70;;;;;;;;;;5017155;28;20442;-70
2021/08/06 14:22:59;;;;;;;2.67;1.37;;;;;;;;;;5001356;28;20415;-70
2021/08/06 14:25:25;;;;;;;2.97;1.40;;;;;;;;;;5016113;28;20420;-70
2021/08/06 14:27:51;;;;;;;3.80;1.50;;;;;;;;;;5013365;28;20546;-69
2021/08/06 14:30:18;;;;;;;2.97;1.40;;;;;;;;;;5017081;28;20407;-71
2021/08/06 14:32:44;;;;;;;3.50;1.70;;;;;;;;;;5014615;28;20415;-66
2021/08/06 14:35:10;;;;;;;2.40;1.40;;;;;;;;;;5015040;28;20506;-69
2021/08/06 14:37:36;;;;;;;2.10;1.17;;;;;;;;;;4999666;28;20526;-67
2021/08/06 14:40:02;;;;;;;3.90;3.23;;;;;;;;;;5010048;28;20429;-69
2021/08/06 14:42:28;;;;;;;4.00;1.43;;;;;;;;;;5006797;28;20438;-69
2021/08/06 14:44:54;;;;;;;2.50;1.40;;;;;;;;;;5015077;28;20882;-70
2021/08/06 14:47:20;;;;;;;2.93;1.67;;;;;;;;;;5013635;28;20855;-70